Time;durP1;ratioP1;P1;durP2;ratioP2;P2;SDS_P1;SDS_P2;PMS_P1;PMS_P2;Temp;Humidity;BMP_temperature;BMP_pressure;BME280_temperature;BME280_humidity;BME280_pressure;Samples;Min_cycle;Max_cycle;Signal;HPM_P1;HPM_P2
2023/10/03 00:01:38;;;;;;;11.50;5.93;;;16.70;99.90;;;;;;5099298;28;20043;-75
2023/10/03 00:04:24;;;;;;;12.43;6.05;;;16.70;99.90;;;;;;5089654;27;20609;-75
2023/10/03 00:07:10;;;;;;;11.98;5.70;;;16.70;99.90;;;;;;5097462;28;20350;-75
2023/10/03 00:09:56;;;;;;;13.00;6.07;;;16.70;99.90;;;;;;5092141;27;20043;-75
2023/10/03 00:12:42;;;;;;;9.73;5.10;;;16.70;99.90;;;;;;5102708;28;20421;-75
2023/10/03 00:15:30;;;;;;;10.85;5.78;;;16.70;99.90;;;;;;5099417;28;20051;-77
2023/10/03 00:18:16;;;;;;;13.13;5.57;;;16.60;99.90;;;;;;5095174;27;20047;-76
2023/10/03 00:21:02;;;;;;;11.40;5.65;;;16.60;99.90;;;;;;5086581;28;20046;-77
2023/10/03 00:23:48;;;;;;;12.70;5.97;;;16.50;99.90;;;;;;5090131;27;20348;-77
2023/10/03 00:26:34;;;;;;;10.80;5.32;;;16.50;99.90;;;;;;5104654;28;20062;-77
2023/10/03 00:29:23;;;;;;;13.93;6.55;;;16.50;99.90;;;;;;5104276;27;20036;-77
2023/10/03 00:32:09;;;;;;;11.40;5.82;;;16.40;99.90;;;;;;5082624;28;20379;-77
2023/10/03 00:34:56;;;;;;;9.18;4.95;;;16.40;99.90;;;;;;5073654;28;20374;-77
2023/10/03 00:37:46;;;;;;;11.00;5.60;;;16.30;99.90;;;;;;5089355;27;20100;-77
2023/10/03 00:40:32;;;;;;;11.57;6.18;;;16.30;99.90;;;;;;5078175;28;20039;-76
2023/10/03 00:43:18;;;;;;;11.75;5.88;;;16.20;99.90;;;;;;5091779;27;20045;-77
2023/10/03 00:46:04;;;;;;;11.95;5.40;;;16.20;99.90;;;;;;5065125;28;20040;-77
2023/10/03 00:48:50;;;;;;;16.05;6.95;;;16.20;99.90;;;;;;5083179;28;20039;-77
2023/10/03 00:51:37;;;;;;;14.35;6.15;;;16.20;99.90;;;;;;5085865;27;20130;-77
2023/10/03 00:54:23;;;;;;;14.95;6.65;;;16.20;99.90;;;;;;5061717;28;20032;-77
2023/10/03 00:57:09;;;;;;;11.23;5.90;;;16.20;99.90;;;;;;5100029;27;20496;-77
2023/10/03 00:59:58;;;;;;;12.45;5.53;;;16.20;99.90;;;;;;5087044;28;20390;-77
2023/10/03 01:02:51;;;;;;;9.52;5.53;;;16.20;99.90;;;;;;5088666;27;20116;-77
2023/10/03 01:05:37;;;;;;;14.65;6.28;;;16.20;99.90;;;;;;5066055;28;20044;-78
2023/10/03 01:08:24;;;;;;;13.38;6.25;;;16.20;99.90;;;;;;5084868;28;20577;-77
2023/10/03 01:11:20;;;;;;;12.27;6.05;;;16.20;99.90;;;;;;5072046;27;20051;-77
2023/10/03 01:14:06;;;;;;;16.20;7.20;;;16.20;99.90;;;;;;5070153;28;20040;-77
2023/10/03 01:16:52;;;;;;;18.52;8.55;;;16.20;99.90;;;;;;5073978;27;20118;-76
2023/10/03 01:19:38;;;;;;;18.42;8.55;;;16.20;99.90;;;;;;5061398;28;20108;-77
2023/10/03 01:22:26;;;;;;;17.23;9.52;;;16.10;99.90;;;;;;5079252;28;20055;-78
2023/10/03 01:25:12;;;;;;;16.35;8.07;;;16.10;99.90;;;;;;5071665;28;20063;-76
2023/10/03 01:27:58;;;;;;;14.88;6.63;;;16.10;99.90;;;;;;5073856;28;20047;-77
2023/10/03 01:30:44;;;;;;;14.73;6.30;;;16.10;99.90;;;;;;5072074;27;20042;-77
2023/10/03 01:33:31;;;;;;;15.07;6.57;;;16.10;99.90;;;;;;5080791;28;20044;-77
2023/10/03 01:36:18;;;;;;;12.90;6.60;;;16.10;99.90;;;;;;5098313;27;20039;-77
2023/10/03 01:39:06;;;;;;;15.50;6.35;;;16.10;99.90;;;;;;5066204;28;20035;-77
2023/10/03 01:41:52;;;;;;;14.88;6.40;;;16.10;99.90;;;;;;5069150;28;20050;-77
2023/10/03 01:44:38;;;;;;;15.07;6.32;;;16.10;99.90;;;;;;5085721;27;20122;-78
2023/10/03 01:47:24;;;;;;;14.48;7.10;;;16.20;99.90;;;;;;5096002;27;20155;-77
2023/10/03 01:50:11;;;;;;;11.77;6.20;;;16.20;99.90;;;;;;5088610;27;20044;-78
2023/10/03 01:52:57;;;;;;;15.30;6.83;;;16.20;99.90;;;;;;5081565;28;20051;-77
2023/10/03 01:55:43;;;;;;;14.75;6.15;;;16.30;99.90;;;;;;5075435;28;20047;-78
2023/10/03 01:58:30;;;;;;;13.32;6.28;;;16.30;99.90;;;;;;5058236;27;20046;-77
2023/10/03 02:01:16;;;;;;;12.55;6.28;;;16.40;99.90;;;;;;5078306;28;20040;-77
2023/10/03 02:04:03;;;;;;;11.98;5.70;;;16.40;99.90;;;;;;5083318;28;20413;-77
2023/10/03 02:06:51;;;;;;;14.68;6.60;;;16.40;99.90;;;;;;5066575;28;20115;-77
2023/10/03 02:09:37;;;;;;;15.00;6.30;;;16.40;99.90;;;;;;5080592;28;20043;-77
2023/10/03 02:12:23;;;;;;;14.57;6.60;;;16.50;99.90;;;;;;5056220;28;20140;-79
2023/10/03 02:15:09;;;;;;;14.90;7.07;;;16.50;99.90;;;;;;5080580;28;21027;-77
2023/10/03 02:17:57;;;;;;;13.15;6.97;;;16.60;99.90;;;;;;5090023;27;20043;-77
2023/10/03 02:20:50;;;;;;;14.90;7.32;;;16.60;99.90;;;;;;5099654;28;20032;-77
2023/10/03 02:23:36;;;;;;;15.10;6.82;;;16.60;99.90;;;;;;5073560;27;20201;-77
2023/10/03 02:26:23;;;;;;;13.13;6.43;;;16.70;99.90;;;;;;5084959;28;20551;-77
2023/10/03 02:29:10;;;;;;;14.48;6.38;;;16.70;99.90;;;;;;5099592;28;20541;-76
2023/10/03 02:31:57;;;;;;;20.10;6.53;;;16.70;99.90;;;;;;5076617;27;20047;-77
2023/10/03 02:34:44;;;;;;;16.63;7.07;;;16.70;99.90;;;;;;5070728;28;20131;-77
2023/10/03 02:37:30;;;;;;;14.77;7.47;;;16.70;99.90;;;;;;5069966;27;20490;-75
2023/10/03 02:40:26;;;;;;;16.70;6.95;;;16.80;99.90;;;;;;5098491;28;20094;-77
2023/10/03 02:43:13;;;;;;;13.35;6.50;;;16.80;99.90;;;;;;5101625;27;20470;-76
2023/10/03 02:45:59;;;;;;;15.38;7.45;;;16.80;99.90;;;;;;5089654;28;20082;-76
2023/10/03 02:48:45;;;;;;;16.75;7.00;;;16.80;99.90;;;;;;5071221;28;20044;-77
2023/10/03 02:51:32;;;;;;;18.75;7.18;;;16.80;99.90;;;;;;5057332;27;20075;-76
2023/10/03 02:54:18;;;;;;;14.45;6.95;;;16.90;99.90;;;;;;5084828;28;20039;-77
2023/10/03 02:57:04;;;;;;;13.70;6.45;;;16.90;99.90;;;;;;5084661;28;20039;-77
2023/10/03 02:59:50;;;;;;;16.38;7.10;;;16.90;99.90;;;;;;5080223;28;20431;-75
2023/10/03 03:02:36;;;;;;;15.15;6.45;;;17.00;99.90;;;;;;5065418;28;20123;-77
2023/10/03 03:05:22;;;;;;;13.80;6.55;;;17.10;99.90;;;;;;5076297;27;20067;-77
2023/10/03 03:11:05;;;;;;;13.40;6.95;;;17.10;99.90;;;;;;5092505;27;20035;-76
2023/10/03 03:13:52;;;;;;;15.53;6.40;;;17.20;99.90;;;;;;5087676;28;20486;-78
2023/10/03 03:16:40;;;;;;;15.48;6.90;;;17.10;99.90;;;;;;5111073;27;20678;-75
2023/10/03 03:19:27;;;;;;;;;;;17.20;99.90;;;;;;5061322;28;20468;-75
2023/10/03 03:22:15;;;;;;;13.80;6.40;;;17.20;99.90;;;;;;5079599;28;19912;-75
2023/10/03 03:25:02;;;;;;;13.57;6.93;;;17.20;99.90;;;;;;5075100;28;20039;-75
2023/10/03 03:27:51;;;;;;;14.38;6.80;;;17.20;99.90;;;;;;5066145;28;20059;-75
2023/10/03 03:30:37;;;;;;;14.00;6.22;;;17.20;99.90;;;;;;5071041;28;20421;-75
2023/10/03 03:33:27;;;;;;;15.05;7.00;;;17.20;99.90;;;;;;5067049;28;20547;-75
2023/10/03 03:36:18;;;;;;;14.85;7.68;;;17.10;99.90;;;;;;5097096;28;20071;-75
2023/10/03 03:39:05;;;;;;;15.82;7.13;;;17.10;99.90;;;;;;5059002;28;20122;-76
2023/10/03 03:41:51;;;;;;;17.65;7.50;;;17.10;99.90;;;;;;5067899;28;20040;-75
2023/10/03 03:44:39;;;;;;;15.95;7.20;;;17.10;99.90;;;;;;5055822;28;20437;-76
2023/10/03 03:47:25;;;;;;;13.40;6.90;;;17.10;99.90;;;;;;5070919;28;20039;-75
2023/10/03 03:50:11;;;;;;;16.98;7.85;;;17.10;99.90;;;;;;5113495;28;20134;-75
2023/10/03 03:52:58;;;;;;;16.00;8.25;;;17.20;99.90;;;;;;5090155;28;20050;-75
2023/10/03 03:55:46;;;;;;;15.90;7.65;;;17.20;99.90;;;;;;5078189;28;20071;-75
2023/10/03 03:58:32;;;;;;;17.63;7.83;;;17.20;99.90;;;;;;5089197;28;20039;-75
2023/10/03 04:01:19;;;;;;;18.65;8.20;;;17.20;99.90;;;;;;5082776;28;20097;-75
2023/10/03 04:04:07;;;;;;;22.15;8.60;;;17.20;99.90;;;;;;5083866;28;20115;-75
2023/10/03 04:06:55;;;;;;;17.42;8.70;;;17.10;99.90;;;;;;5092205;28;20117;-75
2023/10/03 04:09:41;;;;;;;18.00;9.15;;;17.10;99.90;;;;;;5104606;28;20036;-76
2023/10/03 04:12:27;;;;;;;17.58;8.80;;;17.20;99.90;;;;;;5083323;28;20127;-75
2023/10/03 04:15:18;;;;;;;18.35;8.75;;;17.10;99.90;;;;;;5094456;28;20475;-75
2023/10/03 04:18:04;;;;;;;16.48;7.65;;;17.10;99.90;;;;;;5085849;28;20035;-74
2023/10/03 04:20:50;;;;;;;21.00;10.20;;;17.10;99.90;;;;;;5082393;28;20047;-75
2023/10/03 04:23:39;;;;;;;20.30;8.95;;;17.10;99.90;;;;;;5074312;27;20493;-75
2023/10/03 04:26:26;;;;;;;21.48;10.45;;;17.10;99.90;;;;;;5079155;28;20131;-75
2023/10/03 04:29:13;;;;;;;21.45;9.35;;;17.10;99.90;;;;;;5067837;28;20093;-75
2023/10/03 04:31:59;;;;;;;19.42;8.82;;;17.10;99.90;;;;;;5078992;27;20402;-76
2023/10/03 04:34:45;;;;;;;20.75;9.40;;;17.10;99.90;;;;;;5086366;28;20402;-75
2023/10/03 04:37:31;;;;;;;22.80;10.85;;;17.10;99.90;;;;;;5116217;27;20050;-75
2023/10/03 04:40:22;;;;;;;23.27;10.23;;;17.10;99.90;;;;;;5087614;28;20507;-75
2023/10/03 04:43:11;;;;;;;21.77;10.05;;;17.20;99.90;;;;;;5099688;27;20040;-76
2023/10/03 04:45:57;;;;;;;22.73;10.32;;;17.20;99.90;;;;;;5071948;28;20048;-75
2023/10/03 04:48:44;;;;;;;20.98;9.57;;;17.30;99.90;;;;;;5097713;28;20039;-75
2023/10/03 04:51:30;;;;;;;24.42;10.02;;;17.30;99.90;;;;;;5091728;27;20189;-74
2023/10/03 04:54:16;;;;;;;22.40;10.15;;;17.30;99.90;;;;;;5073295;28;20067;-75
2023/10/03 04:57:03;;;;;;;24.95;10.90;;;17.40;99.90;;;;;;5069965;27;20047;-75
2023/10/03 04:59:49;;;;;;;24.63;11.10;;;17.40;99.90;;;;;;5116050;27;20039;-74
2023/10/03 05:02:35;;;;;;;23.38;10.55;;;17.40;99.90;;;;;;5068430;28;20050;-75
2023/10/03 05:05:23;;;;;;;25.02;11.05;;;17.40;99.90;;;;;;5091859;27;20049;-75
2023/10/03 05:08:09;;;;;;;23.25;10.88;;;17.50;99.90;;;;;;5100648;28;20468;-75
2023/10/03 05:10:54;;;;;;;28.90;12.02;;;17.50;99.90;;;;;;5104205;27;20114;-75
2023/10/03 05:13:43;;;;;;;22.90;11.10;;;17.50;99.90;;;;;;5103518;28;20479;-75
2023/10/03 05:16:31;;;;;;;25.15;11.73;;;17.60;99.90;;;;;;5094153;27;20119;-75
2023/10/03 05:19:17;;;;;;;25.20;11.93;;;17.60;99.90;;;;;;5108067;27;20116;-75
2023/10/03 05:22:04;;;;;;;28.63;12.15;;;17.80;99.90;;;;;;5086648;28;20096;-75
2023/10/03 05:24:50;;;;;;;28.48;12.52;;;17.80;99.90;;;;;;5078265;27;20476;-74
2023/10/03 05:27:36;;;;;;;23.10;11.43;;;17.90;99.90;;;;;;5111315;27;20051;-75
2023/10/03 05:30:25;;;;;;;27.08;11.80;;;18.00;99.90;;;;;;5084841;27;20070;-75
2023/10/03 05:33:12;;;;;;;22.33;10.75;;;18.00;99.90;;;;;;5094754;28;20398;-75
2023/10/03 05:35:58;;;;;;;23.47;11.33;;;18.00;99.90;;;;;;5095423;28;20066;-75
2023/10/03 05:38:46;;;;;;;23.80;11.32;;;18.00;99.90;;;;;;5083806;27;20041;-75
2023/10/03 05:41:32;;;;;;;22.17;11.23;;;18.00;99.90;;;;;;5065317;28;20048;-75
2023/10/03 05:44:21;;;;;;;26.15;11.35;;;18.00;99.90;;;;;;5085116;27;20323;-75
2023/10/03 05:47:07;;;;;;;23.13;11.63;;;18.10;99.90;;;;;;5093715;28;20613;-76
2023/10/03 05:49:53;;;;;;;27.70;12.23;;;18.10;99.90;;;;;;5082233;28;20557;-75
2023/10/03 05:52:39;;;;;;;25.13;11.88;;;18.10;99.90;;;;;;5091984;27;20124;-75
2023/10/03 05:55:25;;;;;;;26.77;12.05;;;18.10;99.90;;;;;;5096929;28;20035;-75
2023/10/03 05:58:11;;;;;;;24.17;11.65;;;18.10;99.90;;;;;;5081921;27;20529;-75
2023/10/03 06:00:57;;;;;;;25.02;11.20;;;18.20;99.90;;;;;;5070232;28;20104;-75
2023/10/03 06:03:43;;;;;;;29.13;12.13;;;18.20;99.90;;;;;;5065989;27;20043;-75
2023/10/03 06:06:29;;;;;;;26.65;12.60;;;18.20;99.90;;;;;;5097984;27;20426;-75
2023/10/03 06:09:15;;;;;;;21.42;10.45;;;18.30;99.90;;;;;;5071034;28;20383;-75
2023/10/03 06:12:01;;;;;;;24.23;11.48;;;18.30;99.90;;;;;;5077989;27;20046;-76
2023/10/03 06:14:47;;;;;;;23.42;11.68;;;18.30;99.90;;;;;;5084463;28;20476;-75
2023/10/03 06:17:33;;;;;;;26.27;11.48;;;18.40;99.90;;;;;;5099785;27;20078;-76
2023/10/03 06:20:19;;;;;;;26.20;11.77;;;18.50;99.90;;;;;;5078550;28;20042;-75
2023/10/03 06:23:05;;;;;;;25.15;11.75;;;18.60;99.90;;;;;;5079479;28;20039;-75
2023/10/03 06:25:51;;;;;;;26.58;11.95;;;18.80;99.90;;;;;;5083154;27;20270;-75
2023/10/03 06:28:37;;;;;;;25.65;11.00;;;18.90;99.90;;;;;;5084125;28;20376;-75
2023/10/03 06:31:23;;;;;;;27.75;12.48;;;19.00;99.90;;;;;;5085173;27;20043;-75
2023/10/03 06:34:09;;;;;;;26.00;12.18;;;19.00;99.90;;;;;;5084549;28;20439;-75
2023/10/03 06:36:58;;;;;;;21.17;10.95;;;19.10;99.90;;;;;;5080209;28;20061;-75
2023/10/03 06:39:44;;;;;;;25.50;11.10;;;19.40;99.90;;;;;;5086830;28;20036;-75
2023/10/03 06:42:31;;;;;;;24.20;12.05;;;19.30;99.90;;;;;;5078423;28;20109;-75
2023/10/03 06:45:21;;;;;;;25.45;11.57;;;19.30;99.90;;;;;;5074429;27;20062;-75
2023/10/03 06:48:07;;;;;;;24.60;11.30;;;19.30;99.90;;;;;;5070852;28;20509;-75
2023/10/03 06:50:53;;;;;;;25.48;11.60;;;19.40;99.90;;;;;;5081173;28;20045;-75
2023/10/03 06:53:46;;;;;;;25.45;11.43;;;19.40;99.90;;;;;;5072929;28;20123;-75
2023/10/03 06:56:33;;;;;;;25.92;12.80;;;19.50;99.90;;;;;;5102826;27;20059;-75
2023/10/03 06:59:18;;;;;;;24.52;12.25;;;19.50;99.90;;;;;;5092920;27;20491;-76
2023/10/03 07:02:05;;;;;;;28.58;13.63;;;19.60;99.90;;;;;;5096270;28;20039;-75
2023/10/03 07:04:51;;;;;;;28.17;13.32;;;19.60;99.90;;;;;;5085705;27;20108;-77
2023/10/03 07:07:37;;;;;;;26.35;13.25;;;19.60;99.90;;;;;;5078348;28;20036;-76
2023/10/03 07:10:25;;;;;;;26.58;12.57;;;19.80;99.90;;;;;;5098165;28;20530;-76
2023/10/03 07:13:12;;;;;;;27.85;13.25;;;19.80;99.90;;;;;;5094388;27;20412;-76
2023/10/03 07:15:58;;;;;;;24.73;12.30;;;19.90;99.90;;;;;;5080114;28;20115;-77
2023/10/03 07:18:44;;;;;;;25.75;11.93;;;19.90;99.90;;;;;;5089833;27;20118;-78
2023/10/03 07:21:31;;;;;;;22.25;10.90;;;20.00;99.90;;;;;;5068391;28;20043;-78
2023/10/03 07:24:18;;;;;;;22.20;10.95;;;20.10;99.90;;;;;;5094457;28;20035;-78
2023/10/03 07:27:04;;;;;;;24.55;11.75;;;20.10;99.90;;;;;;5063273;28;20108;-78
2023/10/03 07:29:49;;;;;;;23.88;11.75;;;20.10;99.90;;;;;;5085120;28;20126;-77
2023/10/03 07:32:35;;;;;;;21.73;10.90;;;20.20;99.90;;;;;;5084384;28;20047;-77
2023/10/03 07:35:22;;;;;;;20.75;10.68;;;20.20;99.90;;;;;;5085068;28;20371;-77
2023/10/03 07:38:11;;;;;;;24.48;10.65;;;20.20;99.90;;;;;;5081281;28;20035;-77
2023/10/03 07:40:57;;;;;;;22.10;11.07;;;20.30;99.90;;;;;;5064115;28;20479;-77
2023/10/03 07:43:49;;;;;;;27.02;11.40;;;20.20;99.90;;;;;;5064451;28;20135;-78
2023/10/03 07:46:34;;;;;;;21.05;10.30;;;20.30;99.90;;;;;;5076493;28;20048;-78
2023/10/03 07:49:22;;;;;;;20.50;10.70;;;20.30;99.90;;;;;;5095687;28;20074;-78
2023/10/03 07:52:08;;;;;;;23.95;10.65;;;20.40;99.90;;;;;;5071776;28;20131;-77
2023/10/03 07:54:56;;;;;;;21.23;11.50;;;20.40;99.90;;;;;;5073159;28;20041;-77
2023/10/03 07:57:42;;;;;;;22.30;11.10;;;20.40;99.90;;;;;;5097110;28;20043;-77
2023/10/03 08:00:28;;;;;;;25.58;10.75;;;20.40;99.90;;;;;;5094768;27;20356;-77
2023/10/03 08:03:14;;;;;;;24.30;10.40;;;20.40;99.90;;;;;;5087463;28;20055;-77
2023/10/03 08:06:00;;;;;;;23.67;10.82;;;20.40;99.90;;;;;;5087570;27;20046;-77
2023/10/03 08:08:46;;;;;;;22.98;10.55;;;20.40;99.90;;;;;;5101086;28;20043;-77
2023/10/03 08:11:32;;;;;;;27.95;10.35;;;20.40;99.90;;;;;;5080222;27;20050;-77
2023/10/03 08:14:18;;;;;;;24.42;10.43;;;20.40;99.90;;;;;;5092348;28;20146;-77
2023/10/03 08:17:04;;;;;;;19.40;10.00;;;20.40;99.90;;;;;;5086928;28;20364;-77
2023/10/03 08:19:50;;;;;;;22.00;11.95;;;20.40;99.90;;;;;;5087525;27;20113;-79
2023/10/03 08:22:41;;;;;;;22.27;11.32;;;20.50;99.90;;;;;;5089553;28;20039;-78
2023/10/03 08:25:27;;;;;;;20.92;10.68;;;20.50;99.90;;;;;;5105080;27;20101;-79
2023/10/03 08:28:20;;;;;;;22.05;10.15;;;20.50;99.90;;;;;;5084374;28;20075;-78
2023/10/03 08:31:06;;;;;;;21.45;10.57;;;20.50;99.90;;;;;;5070094;28;20360;-77
2023/10/03 08:33:55;;;;;;;23.90;10.10;;;20.50;99.90;;;;;;5072277;27;20790;-77
2023/10/03 08:36:41;;;;;;;18.77;10.18;;;20.50;99.90;;;;;;5073583;28;20500;-77
2023/10/03 08:39:29;;;;;;;19.58;9.88;;;20.50;99.90;;;;;;5087665;27;20062;-77
2023/10/03 08:42:34;;;;;;;20.80;10.02;;;20.50;99.90;;;;;;5082132;28;20081;-77
2023/10/03 08:45:25;;;;;;;23.20;10.43;;;20.50;99.90;;;;;;5088684;27;20372;-78
2023/10/03 08:48:11;;;;;;;20.08;10.15;;;20.50;99.90;;;;;;5091374;28;20053;-77
2023/10/03 08:50:58;;;;;;;20.95;9.85;;;20.50;99.90;;;;;;5102016;27;20042;-77
2023/10/03 08:53:48;;;;;;;23.27;9.55;;;20.50;99.90;;;;;;5061992;28;20044;-78
2023/10/03 08:56:35;;;;;;;19.88;9.55;;;20.60;99.90;;;;;;5093500;28;20032;-78
2023/10/03 08:59:21;;;;;;;20.58;10.15;;;20.60;99.90;;;;;;5067446;27;20047;-78
2023/10/03 09:02:11;;;;;;;22.08;10.50;;;20.60;99.90;;;;;;5067392;28;20040;-79
2023/10/03 09:04:57;;;;;;;19.02;9.70;;;20.60;99.90;;;;;;5084073;27;20039;-77
2023/10/03 09:07:46;;;;;;;21.27;10.30;;;20.60;99.90;;;;;;5085869;28;20043;-77
2023/10/03 09:10:32;;;;;;;22.60;10.23;;;20.70;99.90;;;;;;5085542;27;20063;-79
2023/10/03 09:13:25;;;;;;;21.42;10.25;;;20.70;99.90;;;;;;5077888;28;20051;-77
2023/10/03 09:16:14;;;;;;;20.75;9.80;;;20.70;99.90;;;;;;5075780;28;20100;-77
2023/10/03 09:19:02;;;;;;;23.50;10.45;;;20.70;99.90;;;;;;5096843;27;20042;-78
2023/10/03 09:21:51;;;;;;;22.10;10.57;;;20.70;99.90;;;;;;5072249;28;20181;-79
2023/10/03 09:24:47;;;;;;;22.10;9.40;;;20.70;99.90;;;;;;5072339;28;20066;-77
2023/10/03 09:27:33;;;;;;;21.10;11.27;;;20.70;99.90;;;;;;5088232;28;20572;-77
2023/10/03 09:30:22;;;;;;;20.48;9.35;;;20.70;99.90;;;;;;5101127;27;20092;-77
2023/10/03 09:33:10;;;;;;;18.23;9.13;;;20.70;99.90;;;;;;5094369;28;20053;-77
2023/10/03 09:35:57;;;;;;;27.98;9.63;;;20.70;99.90;;;;;;5073696;28;20043;-77
2023/10/03 09:38:44;;;;;;;20.58;10.27;;;20.70;99.90;;;;;;5084840;28;20563;-77
2023/10/03 09:41:30;;;;;;;18.23;10.10;;;20.70;99.90;;;;;;5078953;27;20495;-77
2023/10/03 09:44:19;;;;;;;21.13;10.68;;;20.70;99.90;;;;;;5069450;27;20039;-77
2023/10/03 09:47:06;;;;;;;21.60;10.27;;;20.70;99.90;;;;;;5093976;28;20043;-77
2023/10/03 09:49:58;;;;;;;20.83;10.95;;;20.70;99.90;;;;;;5084410;27;20039;-77
2023/10/03 09:52:44;;;;;;;18.25;10.02;;;20.70;99.90;;;;;;5084275;27;20044;-78
2023/10/03 09:55:41;;;;;;;20.80;9.75;;;20.70;99.90;;;;;;5069125;28;20040;-78
2023/10/03 09:58:31;;;;;;;19.10;9.70;;;20.70;99.90;;;;;;5080554;27;20047;-78
2023/10/03 10:01:18;;;;;;;24.58;9.77;;;20.70;99.90;;;;;;5088936;28;20114;-78
2023/10/03 10:04:07;;;;;;;18.80;9.50;;;20.70;99.90;;;;;;5070309;27;20130;-78
2023/10/03 10:07:35;;;;;;;20.27;9.52;;;20.70;99.90;;;;;;5068524;28;20182;-78
2023/10/03 10:10:21;;;;;;;19.92;9.93;;;20.80;99.90;;;;;;5098765;28;20450;-77
2023/10/03 10:13:13;;;;;;;17.15;9.02;;;20.80;99.90;;;;;;5084424;28;20104;-77
2023/10/03 10:16:28;;;;;;;23.25;9.70;;;20.80;99.90;;;;;;5091111;27;20083;-77
2023/10/03 10:19:18;;;;;;;18.75;9.82;;;20.80;99.90;;;;;;5086384;28;20031;-77
2023/10/03 10:22:04;;;;;;;18.50;9.18;;;20.90;99.90;;;;;;5092816;27;20363;-78
2023/10/03 10:25:28;;;;;;;19.50;9.82;;;20.90;99.90;;;;;;5065413;28;20290;-78
2023/10/03 10:28:31;;;;;;;20.67;10.25;;;20.90;99.90;;;;;;5094788;28;20043;-77
2023/10/03 10:31:21;;;;;;;18.35;9.38;;;21.00;99.90;;;;;;5088215;27;20040;-77
2023/10/03 10:34:18;;;;;;;17.50;9.63;;;21.00;99.90;;;;;;5078249;28;20036;-77
2023/10/03 10:37:09;;;;;;;21.37;9.10;;;21.00;99.90;;;;;;5096734;27;20075;-77
2023/10/03 10:40:09;;;;;;;22.92;9.90;;;21.10;99.90;;;;;;5076988;28;20035;-77
2023/10/03 10:43:04;;;;;;;16.20;9.25;;;21.10;99.90;;;;;;5109891;27;20075;-77
2023/10/03 10:45:50;;;;;;;17.73;9.80;;;21.10;99.90;;;;;;5065259;28;20487;-78
2023/10/03 10:48:39;;;;;;;15.40;8.73;;;21.20;99.90;;;;;;5083503;28;20360;-78
2023/10/03 10:51:25;;;;;;;25.25;9.25;;;21.20;99.90;;;;;;5061552;27;20039;-77
2023/10/03 10:54:11;;;;;;;15.77;8.70;;;21.20;99.90;;;;;;5064177;28;20062;-77
2023/10/03 10:57:03;;;;;;;16.40;8.23;;;21.20;99.90;;;;;;5080275;27;20035;-77
2023/10/03 10:59:50;;;;;;;17.63;8.98;;;21.20;99.90;;;;;;5078014;28;20122;-77
2023/10/03 11:02:36;;;;;;;14.80;7.20;;;21.20;99.90;;;;;;5095436;27;20492;-78
2023/10/03 11:05:24;;;;;;;15.13;7.45;;;21.10;99.90;;;;;;5063008;27;20051;-77
2023/10/03 11:08:11;;;;;;;15.23;7.43;;;21.10;99.90;;;;;;5085084;28;20480;-77
2023/10/03 11:10:57;;;;;;;14.88;7.57;;;21.20;99.90;;;;;;5069428;27;20375;-77
2023/10/03 11:13:50;;;;;;;15.38;6.63;;;21.20;99.90;;;;;;5064313;28;20036;-77
2023/10/03 11:16:36;;;;;;;10.80;4.28;;;21.30;99.90;;;;;;5071941;27;20043;-77
2023/10/03 11:19:22;;;;;;;11.98;4.95;;;21.20;99.90;;;;;;5063922;28;20035;-74
2023/10/03 11:22:12;;;;;;;8.35;3.83;;;21.30;99.90;;;;;;5081001;28;20475;-75
2023/10/03 11:24:58;;;;;;;9.07;3.50;;;21.40;99.90;;;;;;5075814;28;20063;-74
2023/10/03 11:27:46;;;;;;;8.95;3.83;;;21.30;99.90;;;;;;5083808;28;20110;-74
2023/10/03 11:30:32;;;;;;;8.85;3.80;;;21.30;99.90;;;;;;5082620;27;20053;-76
2023/10/03 11:33:18;;;;;;;7.05;3.90;;;21.20;99.90;;;;;;5073687;28;20055;-75
2023/10/03 11:36:07;;;;;;;8.10;3.90;;;21.20;99.90;;;;;;5067945;28;20043;-74
2023/10/03 11:38:54;;;;;;;;;;;21.10;99.90;;;;;;5056644;28;20086;-77
2023/10/03 11:41:40;;;;;;;13.63;4.30;;;21.10;99.90;;;;;;5107371;28;19918;-76
2023/10/03 11:44:27;;;;;;;8.00;4.28;;;21.20;99.90;;;;;;5083354;28;20036;-77
2023/10/03 11:47:22;;;;;;;11.88;4.60;;;21.20;99.90;;;;;;5080668;28;20086;-77
2023/10/03 11:50:09;;;;;;;11.23;4.38;;;21.30;99.90;;;;;;5065535;28;20023;-77
2023/10/03 11:52:59;;;;;;;9.65;4.47;;;21.30;99.90;;;;;;5111951;28;20048;-77
2023/10/03 11:55:45;;;;;;;8.40;4.35;;;21.40;99.90;;;;;;5067981;28;20150;-77
2023/10/03 11:58:31;;;;;;;12.88;4.53;;;21.50;99.90;;;;;;5074772;28;20039;-77
2023/10/03 12:01:17;;;;;;;10.18;5.03;;;21.50;99.90;;;;;;5066284;28;20036;-77
2023/10/03 12:04:04;;;;;;;9.23;4.32;;;21.60;99.90;;;;;;5083771;28;20130;-77
2023/10/03 12:06:50;;;;;;;6.57;3.60;;;21.70;99.90;;;;;;5093621;28;20403;-77
2023/10/03 12:09:36;;;;;;;8.25;3.63;;;21.70;99.90;;;;;;5111698;28;20050;-77
2023/10/03 12:12:22;;;;;;;8.40;4.07;;;21.80;99.90;;;;;;5089684;28;20040;-77
2023/10/03 12:15:12;;;;;;;10.23;3.97;;;21.90;99.90;;;;;;5062922;28;20609;-76
2023/10/03 12:17:59;;;;;;;7.32;3.53;;;22.00;99.90;;;;;;5090374;28;20036;-76
2023/10/03 12:20:45;;;;;;;6.83;3.60;;;21.70;99.90;;;;;;5064324;28;20513;-77
2023/10/03 12:23:31;;;;;;;7.57;3.45;;;21.60;99.90;;;;;;5069708;28;20108;-77
2023/10/03 12:26:17;;;;;;;7.30;3.67;;;21.50;99.90;;;;;;5074468;28;20438;-77
2023/10/03 12:29:10;;;;;;;7.95;3.30;;;21.40;99.90;;;;;;5062355;28;20414;-77
2023/10/03 12:31:56;;;;;;;6.55;3.55;;;21.30;99.90;;;;;;5076267;28;20074;-74
2023/10/03 12:34:43;;;;;;;8.07;3.30;;;21.30;99.90;;;;;;5074769;28;20452;-75
2023/10/03 12:37:29;;;;;;;7.30;3.38;;;21.30;99.90;;;;;;5066435;28;20121;-74
2023/10/03 12:40:17;;;;;;;8.38;3.40;;;21.30;99.90;;;;;;5062694;28;20491;-75
2023/10/03 12:43:03;;;;;;;6.77;3.10;;;21.30;99.90;;;;;;5102436;27;20502;-75
2023/10/03 12:45:49;;;;;;;7.38;2.97;;;21.20;99.90;;;;;;5075960;28;20461;-74
2023/10/03 12:48:35;;;;;;;8.35;3.22;;;21.20;99.90;;;;;;5080121;28;20039;-74
2023/10/03 12:51:22;;;;;;;5.47;3.30;;;21.30;99.90;;;;;;5083938;27;20046;-75
2023/10/03 12:54:10;;;;;;;6.28;2.83;;;21.30;99.90;;;;;;5067945;28;20519;-75
2023/10/03 12:56:59;;;;;;;7.03;3.03;;;21.20;99.90;;;;;;5088612;27;20031;-75
2023/10/03 12:59:45;;;;;;;6.40;2.90;;;21.20;99.90;;;;;;5090949;28;20129;-75
2023/10/03 13:02:31;;;;;;;6.80;3.28;;;21.30;99.90;;;;;;5068921;28;20467;-74
2023/10/03 13:05:18;;;;;;;4.85;2.75;;;21.20;99.90;;;;;;5083598;27;20090;-74
2023/10/03 13:08:04;;;;;;;10.15;2.75;;;21.20;99.90;;;;;;5085568;28;20117;-75
2023/10/03 13:11:01;;;;;;;9.77;3.53;;;21.10;99.90;;;;;;5069962;28;20126;-74
2023/10/03 13:13:49;;;;;;;8.85;3.10;;;21.10;99.90;;;;;;5081827;28;20047;-74
2023/10/03 13:16:35;;;;;;;5.47;3.10;;;21.00;99.90;;;;;;5088636;27;20123;-77
2023/10/03 13:19:21;;;;;;;6.18;2.97;;;21.00;99.90;;;;;;5107679;27;20146;-77
2023/10/03 13:22:08;;;;;;;5.82;2.88;;;20.90;99.90;;;;;;5079617;28;20047;-77
2023/10/03 13:24:55;;;;;;;11.65;3.65;;;20.90;99.90;;;;;;5076621;27;20035;-77
2023/10/03 13:27:41;;;;;;;5.78;2.97;;;20.80;99.90;;;;;;5100055;28;20404;-77
2023/10/03 13:30:28;;;;;;;8.32;3.53;;;20.70;99.90;;;;;;5093724;27;20043;-77
2023/10/03 13:33:14;;;;;;;9.30;3.42;;;20.40;99.90;;;;;;5069797;28;20047;-77
2023/10/03 13:36:00;;;;;;;7.13;3.28;;;20.30;99.90;;;;;;5083758;27;20039;-77
2023/10/03 13:38:46;;;;;;;9.30;3.47;;;20.10;99.90;;;;;;5062001;28;20036;-77
2023/10/03 13:41:34;;;;;;;7.63;3.58;;;20.00;99.90;;;;;;5067760;28;20148;-77
2023/10/03 13:44:20;;;;;;;7.63;3.50;;;19.90;99.90;;;;;;5069859;27;20039;-77
2023/10/03 13:47:06;;;;;;;7.20;3.05;;;19.80;99.90;;;;;;5082590;28;20090;-77
2023/10/03 13:49:55;;;;;;;7.13;3.70;;;19.00;99.90;;;;;;5082280;27;20047;-78
2023/10/03 13:52:41;;;;;;;7.15;2.50;;;18.20;99.90;;;;;;5078587;28;20075;-78
2023/10/03 13:55:29;;;;;;;10.82;2.55;;;17.90;99.90;;;;;;5080901;28;20153;-78
2023/10/03 13:58:15;;;;;;;7.63;2.45;;;17.60;99.90;;;;;;5090536;27;20095;-77
2023/10/03 14:01:03;;;;;;;6.75;1.75;;;17.40;99.90;;;;;;5087071;28;20118;-77
2023/10/03 14:03:49;;;;;;;5.45;2.13;;;17.40;99.90;;;;;;5080647;27;20043;-77
2023/10/03 14:06:35;;;;;;;8.55;2.30;;;17.40;99.90;;;;;;5066147;28;20044;-77
2023/10/03 14:09:27;;;;;;;7.93;1.92;;;17.40;99.90;;;;;;5066581;28;20070;-77
2023/10/03 14:12:13;;;;;;;5.45;2.00;;;17.40;99.90;;;;;;5078914;27;20072;-77
2023/10/03 14:14:59;;;;;;;6.45;2.17;;;17.30;99.90;;;;;;5099188;28;20032;-77
2023/10/03 14:17:45;;;;;;;7.93;2.90;;;17.30;99.90;;;;;;5081479;27;20035;-76
2023/10/03 14:20:31;;;;;;;5.18;2.00;;;17.30;99.90;;;;;;5099666;28;20137;-77
2023/10/03 14:23:17;;;;;;;12.60;3.70;;;17.30;99.90;;;;;;5082342;27;20106;-76